sensor_id;sensor_type;location;lat;lon;timestamp;pressure;altitude;pressure_sealevel;temperature;humidity
73101;BME280;61288;53.446;-2.266;2022-10-26T00:01:30;100100.09;;;13.03;88.51
73101;BME280;61288;53.446;-2.266;2022-10-26T00:03:56;100082.75;;;13.03;88.44
73101;BME280;61288;53.446;-2.266;2022-10-26T00:06:24;100080.97;;;13.04;88.34
73101;BME280;61288;53.446;-2.266;2022-10-26T00:08:54;100080.78;;;13.07;87.95
73101;BME280;61288;53.446;-2.266;2022-10-26T00:11:20;100080.59;;;13.10;87.97
73101;BME280;61288;53.446;-2.266;2022-10-26T00:13:47;100075.09;;;13.14;87.63
73101;BME280;61288;53.446;-2.266;2022-10-26T00:16:25;100064.50;;;13.18;87.49
73101;BME280;61288;53.446;-2.266;2022-10-26T00:18:51;100072.13;;;13.21;87.49
73101;BME280;61288;53.446;-2.266;2022-10-26T00:21:17;100071.13;;;13.23;87.26
73101;BME280;61288;53.446;-2.266;2022-10-26T00:23:43;100063.84;;;13.28;86.61
73101;BME280;61288;53.446;-2.266;2022-10-26T00:26:09;100063.56;;;13.33;86.65
73101;BME280;61288;53.446;-2.266;2022-10-26T00:28:35;100059.94;;;13.36;86.41
73101;BME280;61288;53.446;-2.266;2022-10-26T00:31:07;100054.44;;;13.40;86.10
73101;BME280;61288;53.446;-2.266;2022-10-26T00:33:32;100050.75;;;13.45;85.72
73101;BME280;61288;53.446;-2.266;2022-10-26T00:35:58;100051.47;;;13.47;85.95
73101;BME280;61288;53.446;-2.266;2022-10-26T00:38:24;100043.41;;;13.51;85.38
73101;BME280;61288;53.446;-2.266;2022-10-26T00:40:49;100034.53;;;13.54;85.46
73101;BME280;61288;53.446;-2.266;2022-10-26T00:45:48;100038.63;;;13.58;84.94
73101;BME280;61288;53.446;-2.266;2022-10-26T00:48:23;100028.97;;;13.60;85.14
73101;BME280;61288;53.446;-2.266;2022-10-26T00:50:51;100032.38;;;13.61;85.04
73101;BME280;61288;53.446;-2.266;2022-10-26T00:53:18;100017.41;;;13.64;84.81
73101;BME280;61288;53.446;-2.266;2022-10-26T00:55:46;100012.84;;;13.68;84.69
73101;BME280;61288;53.446;-2.266;2022-10-26T00:58:13;100012.75;;;13.69;84.37
73101;BME280;61288;53.446;-2.266;2022-10-26T01:00:40;100016.16;;;13.70;84.55
73101;BME280;61288;53.446;-2.266;2022-10-26T01:03:09;100016.09;;;13.71;84.72
73101;BME280;61288;53.446;-2.266;2022-10-26T01:05:39;100007.13;;;13.76;84.21
73101;BME280;61288;53.446;-2.266;2022-10-26T01:08:05;99998.38;;;13.77;84.31
73101;BME280;61288;53.446;-2.266;2022-10-26T01:10:32;99991.31;;;13.79;84.39
73101;BME280;61288;53.446;-2.266;2022-10-26T01:12:59;99993.09;;;13.78;84.51
73101;BME280;61288;53.446;-2.266;2022-10-26T01:18:48;99992.03;;;13.81;84.39
73101;BME280;61288;53.446;-2.266;2022-10-26T01:24:03;99976.34;;;13.82;84.38
73101;BME280;61288;53.446;-2.266;2022-10-26T01:26:43;99974.66;;;13.81;84.70
73101;BME280;61288;53.446;-2.266;2022-10-26T01:32:10;99983.41;;;13.80;84.85
73101;BME280;61288;53.446;-2.266;2022-10-26T01:35:03;99987.78;;;13.80;85.03
73101;BME280;61288;53.446;-2.266;2022-10-26T01:37:35;99981.75;;;13.79;85.24
73101;BME280;61288;53.446;-2.266;2022-10-26T01:40:22;99971.41;;;13.78;85.82
73101;BME280;61288;53.446;-2.266;2022-10-26T01:42:52;99965.69;;;13.72;86.67
73101;BME280;61288;53.446;-2.266;2022-10-26T01:45:19;99972.84;;;13.69;86.93
73101;BME280;61288;53.446;-2.266;2022-10-26T01:47:46;99966.81;;;13.68;87.27
73101;BME280;61288;53.446;-2.266;2022-10-26T01:50:12;99969.50;;;13.67;87.23
73101;BME280;61288;53.446;-2.266;2022-10-26T01:52:38;99971.38;;;13.65;87.34
73101;BME280;61288;53.446;-2.266;2022-10-26T02:01:15;99961.69;;;13.67;87.10
73101;BME280;61288;53.446;-2.266;2022-10-26T02:04:05;99952.88;;;13.69;87.01
73101;BME280;61288;53.446;-2.266;2022-10-26T02:09:37;99952.75;;;13.71;86.66
73101;BME280;61288;53.446;-2.266;2022-10-26T02:15:10;99938.78;;;13.72;88.77
73101;BME280;61288;53.446;-2.266;2022-10-26T02:20:39;99940.75;;;13.55;90.75
73101;BME280;61288;53.446;-2.266;2022-10-26T02:23:07;99949.78;;;13.50;91.14
73101;BME280;61288;53.446;-2.266;2022-10-26T02:25:39;99934.38;;;13.47;91.38
73101;BME280;61288;53.446;-2.266;2022-10-26T02:28:10;99945.84;;;13.44;92.16
73101;BME280;61288;53.446;-2.266;2022-10-26T02:30:39;99930.47;;;13.39;92.63
73101;BME280;61288;53.446;-2.266;2022-10-26T02:33:08;99930.75;;;13.35;93.29
73101;BME280;61288;53.446;-2.266;2022-10-26T02:35:37;99934.50;;;13.31;93.88
73101;BME280;61288;53.446;-2.266;2022-10-26T02:38:07;99925.97;;;13.28;nan
73101;BME280;61288;53.446;-2.266;2022-10-26T02:40:35;99912.03;;;13.29;93.83
73101;BME280;61288;53.446;-2.266;2022-10-26T02:43:07;99914.72;;;13.28;93.99
73101;BME280;61288;53.446;-2.266;2022-10-26T02:45:42;99909.69;;;13.25;94.20
73101;BME280;61288;53.446;-2.266;2022-10-26T02:48:08;99915.84;;;13.24;94.21
73101;BME280;61288;53.446;-2.266;2022-10-26T02:53:57;99905.25;;;13.27;93.98
73101;BME280;61288;53.446;-2.266;2022-10-26T02:57:12;99895.59;;;13.29;93.93
73101;BME280;61288;53.446;-2.266;2022-10-26T02:59:14;99891.31;;;13.28;93.86
73101;BME280;61288;53.446;-2.266;2022-10-26T03:01:41;99895.59;;;13.29;93.86
73101;BME280;61288;53.446;-2.266;2022-10-26T03:04:07;99891.00;;;13.33;93.42
73101;BME280;61288;53.446;-2.266;2022-10-26T03:06:33;99886.44;;;13.36;93.13
73101;BME280;61288;53.446;-2.266;2022-10-26T03:08:59;99883.53;;;13.41;92.98
73101;BME280;61288;53.446;-2.266;2022-10-26T03:11:24;99886.81;;;13.45;92.68
73101;BME280;61288;53.446;-2.266;2022-10-26T03:13:50;99890.97;;;13.47;92.51
73101;BME280;61288;53.446;-2.266;2022-10-26T03:16:15;99892.44;;;13.51;92.14
73101;BME280;61288;53.446;-2.266;2022-10-26T03:18:41;99893.19;;;13.53;92.43
73101;BME280;61288;53.446;-2.266;2022-10-26T03:21:06;99892.97;;;13.56;92.43
73101;BME280;61288;53.446;-2.266;2022-10-26T03:23:32;99891.94;;;13.59;92.13
73101;BME280;61288;53.446;-2.266;2022-10-26T03:25:58;99894.44;;;13.61;91.90
73101;BME280;61288;53.446;-2.266;2022-10-26T03:28:25;99883.00;;;13.63;91.65
73101;BME280;61288;53.446;-2.266;2022-10-26T03:30:54;99894.94;;;13.66;91.67
73101;BME280;61288;53.446;-2.266;2022-10-26T03:33:19;99884.47;;;13.67;91.63
73101;BME280;61288;53.446;-2.266;2022-10-26T03:35:56;99892.06;;;13.70;91.53
73101;BME280;61288;53.446;-2.266;2022-10-26T03:38:22;99884.97;;;13.72;91.42
73101;BME280;61288;53.446;-2.266;2022-10-26T03:40:47;99889.03;;;13.77;91.64
73101;BME280;61288;53.446;-2.266;2022-10-26T03:43:13;99885.28;;;13.81;91.16
73101;BME280;61288;53.446;-2.266;2022-10-26T03:45:38;99885.06;;;13.84;91.18
73101;BME280;61288;53.446;-2.266;2022-10-26T03:48:04;99889.03;;;13.90;90.75
73101;BME280;61288;53.446;-2.266;2022-10-26T03:50:29;99881.03;;;13.93;90.89
73101;BME280;61288;53.446;-2.266;2022-10-26T03:52:55;99881.75;;;13.95;90.50
73101;BME280;61288;53.446;-2.266;2022-10-26T03:55:20;99881.53;;;13.98;90.64
73101;BME280;61288;53.446;-2.266;2022-10-26T03:57:46;99890.09;;;14.00;90.44
73101;BME280;61288;53.446;-2.266;2022-10-26T04:00:13;99884.78;;;14.01;90.41
73101;BME280;61288;53.446;-2.266;2022-10-26T04:02:40;99875.19;;;14.02;90.52
73101;BME280;61288;53.446;-2.266;2022-10-26T04:05:06;99882.06;;;14.03;90.24
73101;BME280;61288;53.446;-2.266;2022-10-26T04:07:32;99882.78;;;14.05;90.46
73101;BME280;61288;53.446;-2.266;2022-10-26T04:09:58;99888.84;;;14.06;90.45
73101;BME280;61288;53.446;-2.266;2022-10-26T04:12:23;99893.00;;;14.08;90.42
73101;BME280;61288;53.446;-2.266;2022-10-26T04:14:49;99891.97;;;14.11;90.50
73101;BME280;61288;53.446;-2.266;2022-10-26T04:17:14;99894.25;;;14.15;90.04
73101;BME280;61288;53.446;-2.266;2022-10-26T04:19:40;99906.22;;;14.18;89.92
73101;BME280;61288;53.446;-2.266;2022-10-26T04:22:05;99908.00;;;14.18;90.13
73101;BME280;61288;53.446;-2.266;2022-10-26T04:24:31;99916.44;;;14.21;89.73
73101;BME280;61288;53.446;-2.266;2022-10-26T04:26:56;99908.53;;;14.23;89.70
73101;BME280;61288;53.446;-2.266;2022-10-26T04:29:22;99919.59;;;14.26;89.97
73101;BME280;61288;53.446;-2.266;2022-10-26T04:31:47;99920.41;;;14.27;90.32
73101;BME280;61288;53.446;-2.266;2022-10-26T04:34:13;99922.19;;;14.26;90.32
73101;BME280;61288;53.446;-2.266;2022-10-26T04:36:40;99920.41;;;14.27;90.17
73101;BME280;61288;53.446;-2.266;2022-10-26T04:39:05;99910.91;;;14.26;90.34
73101;BME280;61288;53.446;-2.266;2022-10-26T04:41:31;99913.63;;;14.24;90.48
73101;BME280;61288;53.446;-2.266;2022-10-26T04:43:57;99915.41;;;14.24;90.21
73101;BME280;61288;53.446;-2.266;2022-10-26T04:46:22;99915.63;;;14.21;90.04
73101;BME280;61288;53.446;-2.266;2022-10-26T04:48:48;99914.03;;;14.18;89.97
73101;BME280;61288;53.446;-2.266;2022-10-26T04:51:13;99924.69;;;14.15;90.17
73101;BME280;61288;53.446;-2.266;2022-10-26T04:53:39;99913.66;;;14.11;90.25
73101;BME280;61288;53.446;-2.266;2022-10-26T04:56:05;99926.97;;;14.07;90.68
73101;BME280;61288;53.446;-2.266;2022-10-26T04:58:31;99928.13;;;14.03;90.49
73101;BME280;61288;53.446;-2.266;2022-10-26T05:00:56;99916.97;;;14.00;90.42
73101;BME280;61288;53.446;-2.266;2022-10-26T05:03:21;99913.66;;;13.98;90.62
73101;BME280;61288;53.446;-2.266;2022-10-26T05:05:47;99906.03;;;13.95;90.51
73101;BME280;61288;53.446;-2.266;2022-10-26T05:08:14;99908.94;;;13.91;90.62
73101;BME280;61288;53.446;-2.266;2022-10-26T05:10:40;99915.28;;;13.86;90.91
73101;BME280;61288;53.446;-2.266;2022-10-26T05:13:08;99918.84;;;13.85;90.99
73101;BME280;61288;53.446;-2.266;2022-10-26T05:15:33;99919.25;;;13.79;91.11
73101;BME280;61288;53.446;-2.266;2022-10-26T05:18:01;99923.72;;;13.77;91.33
73101;BME280;61288;53.446;-2.266;2022-10-26T05:20:29;99920.28;;;13.77;91.20
73101;BME280;61288;53.446;-2.266;2022-10-26T05:23:00;99917.75;;;13.75;91.35
73101;BME280;61288;53.446;-2.266;2022-10-26T05:25:29;99919.56;;;13.75;91.33
73101;BME280;61288;53.446;-2.266;2022-10-26T05:27:59;99909.94;;;13.75;91.02
73101;BME280;61288;53.446;-2.266;2022-10-26T05:30:25;99915.38;;;13.72;90.90
73101;BME280;61288;53.446;-2.266;2022-10-26T05:32:55;99914.56;;;13.71;90.83
73101;BME280;61288;53.446;-2.266;2022-10-26T05:35:21;99914.63;;;13.70;90.79
73101;BME280;61288;53.446;-2.266;2022-10-26T05:37:46;99923.59;;;13.66;91.19
73101;BME280;61288;53.446;-2.266;2022-10-26T05:40:12;99920.97;;;13.66;91.00
73101;BME280;61288;53.446;-2.266;2022-10-26T05:42:38;99909.84;;;13.64;91.21
73101;BME280;61288;53.446;-2.266;2022-10-26T05:45:04;99901.22;;;13.63;90.92
73101;BME280;61288;53.446;-2.266;2022-10-26T05:47:29;99909.03;;;13.63;90.60
73101;BME280;61288;53.446;-2.266;2022-10-26T05:49:55;99917.66;;;13.64;90.64
73101;BME280;61288;53.446;-2.266;2022-10-26T05:52:20;99920.47;;;13.61;90.54
73101;BME280;61288;53.446;-2.266;2022-10-26T05:54:46;99929.50;;;13.55;90.76
73101;BME280;61288;53.446;-2.266;2022-10-26T05:57:12;99937.50;;;13.52;90.72
73101;BME280;61288;53.446;-2.266;2022-10-26T05:59:38;99936.03;;;13.48;90.78
73101;BME280;61288;53.446;-2.266;2022-10-26T06:02:39;99934.38;;;13.47;90.86
73101;BME280;61288;53.446;-2.266;2022-10-26T06:05:10;99938.03;;;13.44;90.83
73101;BME280;61288;53.446;-2.266;2022-10-26T06:07:42;99940.63;;;13.44;90.45
73101;BME280;61288;53.446;-2.266;2022-10-26T06:10:09;99926.00;;;13.41;90.21
73101;BME280;61288;53.446;-2.266;2022-10-26T06:12:35;99932.16;;;13.40;90.49
73101;BME280;61288;53.446;-2.266;2022-10-26T06:15:01;99938.28;;;13.39;90.03
73101;BME280;61288;53.446;-2.266;2022-10-26T06:17:35;99937.34;;;13.40;89.71
73101;BME280;61288;53.446;-2.266;2022-10-26T06:31:06;99940.88;;;13.39;89.15
73101;BME280;61288;53.446;-2.266;2022-10-26T06:33:32;99943.56;;;13.38;88.82
73101;BME280;61288;53.446;-2.266;2022-10-26T06:38:48;99947.97;;;13.37;88.85
73101;BME280;61288;53.446;-2.266;2022-10-26T06:41:15;99934.00;;;13.38;88.69
73101;BME280;61288;53.446;-2.266;2022-10-26T06:43:44;99938.03;;;13.44;87.92
73101;BME280;61288;53.446;-2.266;2022-10-26T06:51:34;99957.91;;;13.45;88.15
73101;BME280;61288;53.446;-2.266;2022-10-26T06:56:30;99944.59;;;13.50;87.82
73101;BME280;61288;53.446;-2.266;2022-10-26T06:59:07;99948.75;;;13.52;87.68
73101;BME280;61288;53.446;-2.266;2022-10-26T07:01:37;99949.69;;;13.51;87.59
73101;BME280;61288;53.446;-2.266;2022-10-26T07:04:02;99946.16;;;13.52;87.60
73101;BME280;61288;53.446;-2.266;2022-10-26T07:06:28;99952.19;;;13.53;87.14
73101;BME280;61288;53.446;-2.266;2022-10-26T07:08:54;99956.38;;;13.55;87.08
73101;BME280;61288;53.446;-2.266;2022-10-26T07:11:20;99960.66;;;13.56;86.92
73101;BME280;61288;53.446;-2.266;2022-10-26T07:13:45;99976.06;;;13.60;86.58
73101;BME280;61288;53.446;-2.266;2022-10-26T07:16:11;99976.78;;;13.62;87.22
73101;BME280;61288;53.446;-2.266;2022-10-26T07:18:37;99965.66;;;13.60;87.85
73101;BME280;61288;53.446;-2.266;2022-10-26T07:21:02;99964.19;;;13.55;88.85
73101;BME280;61288;53.446;-2.266;2022-10-26T07:23:28;99949.91;;;13.48;89.72
73101;BME280;61288;53.446;-2.266;2022-10-26T07:25:53;99926.81;;;13.42;90.43
73101;BME280;61288;53.446;-2.266;2022-10-26T07:28:18;99959.19;;;13.38;90.76
73101;BME280;61288;53.446;-2.266;2022-10-26T07:30:44;99963.66;;;13.36;90.90
73101;BME280;61288;53.446;-2.266;2022-10-26T07:33:12;99962.84;;;13.35;91.11
73101;BME280;61288;53.446;-2.266;2022-10-26T07:35:38;99975.84;;;13.35;90.72
73101;BME280;61288;53.446;-2.266;2022-10-26T07:38:04;99966.16;;;13.37;90.26
73101;BME280;61288;53.446;-2.266;2022-10-26T07:40:34;99957.44;;;13.38;90.15
73101;BME280;61288;53.446;-2.266;2022-10-26T07:43:00;99963.19;;;13.43;89.32
73101;BME280;61288;53.446;-2.266;2022-10-26T07:45:28;99971.66;;;13.47;89.27
73101;BME280;61288;53.446;-2.266;2022-10-26T07:47:54;99989.56;;;13.52;88.50
73101;BME280;61288;53.446;-2.266;2022-10-26T07:50:19;99991.03;;;13.56;88.14
73101;BME280;61288;53.446;-2.266;2022-10-26T07:52:45;99992.53;;;13.60;87.58
73101;BME280;61288;53.446;-2.266;2022-10-26T07:55:11;100000.13;;;13.63;87.71
73101;BME280;61288;53.446;-2.266;2022-10-26T07:57:38;99991.06;;;13.69;87.20
73101;BME280;61288;53.446;-2.266;2022-10-26T08:00:07;100007.22;;;13.74;87.20
73101;BME280;61288;53.446;-2.266;2022-10-26T08:02:33;100010.28;;;13.81;86.43
73101;BME280;61288;53.446;-2.266;2022-10-26T08:04:59;100024.97;;;13.82;86.41
73101;BME280;61288;53.446;-2.266;2022-10-26T08:07:25;100022.16;;;13.85;86.13
73101;BME280;61288;53.446;-2.266;2022-10-26T08:09:51;100018.53;;;13.88;85.34
73101;BME280;61288;53.446;-2.266;2022-10-26T08:12:17;100015.81;;;13.89;85.33
73101;BME280;61288;53.446;-2.266;2022-10-26T08:14:43;100021.75;;;13.91;85.69
73101;BME280;61288;53.446;-2.266;2022-10-26T08:17:10;100028.00;;;13.89;85.87
73101;BME280;61288;53.446;-2.266;2022-10-26T08:19:36;100037.69;;;13.86;85.56
73101;BME280;61288;53.446;-2.266;2022-10-26T08:22:01;100042.91;;;13.86;85.78
73101;BME280;61288;53.446;-2.266;2022-10-26T08:24:28;100048.00;;;13.88;85.75
73101;BME280;61288;53.446;-2.266;2022-10-26T08:26:53;100037.56;;;13.88;85.66
73101;BME280;61288;53.446;-2.266;2022-10-26T08:29:19;100045.19;;;13.91;85.38
73101;BME280;61288;53.446;-2.266;2022-10-26T08:31:46;100047.41;;;13.97;84.89
73101;BME280;61288;53.446;-2.266;2022-10-26T08:34:13;100048.91;;;14.14;84.41
73101;BME280;61288;53.446;-2.266;2022-10-26T08:36:39;100060.28;;;14.26;84.70
73101;BME280;61288;53.446;-2.266;2022-10-26T08:39:05;100052.06;;;14.33;84.02
73101;BME280;61288;53.446;-2.266;2022-10-26T08:41:36;100059.78;;;14.47;83.08
73101;BME280;61288;53.446;-2.266;2022-10-26T08:47:13;100046.53;;;14.63;82.74
73101;BME280;61288;53.446;-2.266;2022-10-26T08:49:45;100063.75;;;14.66;83.26
73101;BME280;61288;53.446;-2.266;2022-10-26T08:52:17;100071.78;;;14.63;82.49
73101;BME280;61288;53.446;-2.266;2022-10-26T08:54:54;100084.75;;;14.77;82.15
73101;BME280;61288;53.446;-2.266;2022-10-26T08:57:26;100079.94;;;14.84;81.63
73101;BME280;61288;53.446;-2.266;2022-10-26T09:00:00;100074.22;;;14.92;81.05
73101;BME280;61288;53.446;-2.266;2022-10-26T09:02:27;100077.94;;;15.00;80.85
73101;BME280;61288;53.446;-2.266;2022-10-26T09:04:53;100080.47;;;15.02;80.33
73101;BME280;61288;53.446;-2.266;2022-10-26T09:10:15;100099.53;;;15.15;80.58
73101;BME280;61288;53.446;-2.266;2022-10-26T09:15:45;100097.97;;;15.26;79.55
73101;BME280;61288;53.446;-2.266;2022-10-26T09:21:11;100114.72;;;15.35;78.82
73101;BME280;61288;53.446;-2.266;2022-10-26T09:24:14;100118.69;;;15.40;77.98
73101;BME280;61288;53.446;-2.266;2022-10-26T09:26:57;100121.06;;;15.56;77.75
73101;BME280;61288;53.446;-2.266;2022-10-26T09:29:31;100117.56;;;15.69;75.67
73101;BME280;61288;53.446;-2.266;2022-10-26T09:31:59;100116.84;;;15.67;75.55
73101;BME280;61288;53.446;-2.266;2022-10-26T09:34:30;100128.72;;;15.71;74.74
73101;BME280;61288;53.446;-2.266;2022-10-26T09:36:57;100132.00;;;15.62;75.53
73101;BME280;61288;53.446;-2.266;2022-10-26T09:39:57;100139.13;;;15.59;75.74
73101;BME280;61288;53.446;-2.266;2022-10-26T09:45:19;100141.06;;;15.31;76.37
73101;BME280;61288;53.446;-2.266;2022-10-26T09:47:51;100153.28;;;15.18;77.19
73101;BME280;61288;53.446;-2.266;2022-10-26T09:50:20;100155.91;;;15.18;77.90
73101;BME280;61288;53.446;-2.266;2022-10-26T09:52:47;100161.22;;;15.29;77.18
73101;BME280;61288;53.446;-2.266;2022-10-26T09:55:13;100162.38;;;15.25;76.88
73101;BME280;61288;53.446;-2.266;2022-10-26T09:57:44;100156.09;;;15.28;77.08
73101;BME280;61288;53.446;-2.266;2022-10-26T10:00:15;100161.50;;;15.38;77.53
73101;BME280;61288;53.446;-2.266;2022-10-26T10:02:43;100161.50;;;15.38;76.79
73101;BME280;61288;53.446;-2.266;2022-10-26T10:05:30;100173.28;;;15.56;75.04
73101;BME280;61288;53.446;-2.266;2022-10-26T10:08:25;100182.59;;;15.85;75.52
73101;BME280;61288;53.446;-2.266;2022-10-26T10:11:05;100181.66;;;15.99;74.31
73101;BME280;61288;53.446;-2.266;2022-10-26T10:13:34;100191.50;;;16.20;74.29
73101;BME280;61288;53.446;-2.266;2022-10-26T10:16:12;100192.28;;;16.33;73.51
73101;BME280;61288;53.446;-2.266;2022-10-26T10:18:40;100196.50;;;16.47;70.93
73101;BME280;61288;53.446;-2.266;2022-10-26T10:21:06;100198.94;;;16.37;70.11
73101;BME280;61288;53.446;-2.266;2022-10-26T10:23:35;100209.25;;;16.27;70.66
73101;BME280;61288;53.446;-2.266;2022-10-26T10:26:06;100213.09;;;16.35;70.14
73101;BME280;61288;53.446;-2.266;2022-10-26T10:28:32;100223.75;;;16.56;68.65
73101;BME280;61288;53.446;-2.266;2022-10-26T10:31:01;100223.81;;;16.43;68.26
73101;BME280;61288;53.446;-2.266;2022-10-26T10:33:35;100226.75;;;16.38;67.10
73101;BME280;61288;53.446;-2.266;2022-10-26T10:36:08;100222.94;;;16.31;66.25
73101;BME280;61288;53.446;-2.266;2022-10-26T10:38:50;100231.56;;;16.44;67.46
73101;BME280;61288;53.446;-2.266;2022-10-26T10:41:27;100235.34;;;16.65;66.33
73101;BME280;61288;53.446;-2.266;2022-10-26T10:44:39;100225.13;;;16.73;64.82
73101;BME280;61288;53.446;-2.266;2022-10-26T10:46:40;100225.50;;;16.80;64.38
73101;BME280;61288;53.446;-2.266;2022-10-26T10:49:24;100237.22;;;16.98;65.45
73101;BME280;61288;53.446;-2.266;2022-10-26T10:51:52;100227.25;;;17.03;63.68
73101;BME280;61288;53.446;-2.266;2022-10-26T10:54:31;100245.69;;;17.02;62.76
73101;BME280;61288;53.446;-2.266;2022-10-26T11:07:52;100260.19;;;16.70;61.32
73101;BME280;61288;53.446;-2.266;2022-10-26T11:10:22;100264.59;;;16.70;61.09
73101;BME280;61288;53.446;-2.266;2022-10-26T11:12:57;100270.81;;;16.80;61.45
73101;BME280;61288;53.446;-2.266;2022-10-26T11:15:27;100287.59;;;16.78;62.13
73101;BME280;61288;53.446;-2.266;2022-10-26T11:18:11;100297.50;;;16.61;60.80
73101;BME280;61288;53.446;-2.266;2022-10-26T11:20:45;100280.97;;;16.60;61.10
73101;BME280;61288;53.446;-2.266;2022-10-26T11:23:23;100280.63;;;16.65;61.11
73101;BME280;61288;53.446;-2.266;2022-10-26T11:25:53;100286.69;;;16.66;61.11
73101;BME280;61288;53.446;-2.266;2022-10-26T11:30:57;100285.41;;;16.71;60.97
73101;BME280;61288;53.446;-2.266;2022-10-26T11:33:29;100291.75;;;16.80;62.59
73101;BME280;61288;53.446;-2.266;2022-10-26T11:36:04;100295.03;;;16.71;62.20
73101;BME280;61288;53.446;-2.266;2022-10-26T11:38:57;100285.47;;;16.83;62.25
73101;BME280;61288;53.446;-2.266;2022-10-26T11:41:34;100299.59;;;16.80;62.13
73101;BME280;61288;53.446;-2.266;2022-10-26T11:44:43;100309.13;;;16.57;61.81
73101;BME280;61288;53.446;-2.266;2022-10-26T11:47:18;100308.34;;;16.43;61.37
73101;BME280;61288;53.446;-2.266;2022-10-26T11:50:03;100323.13;;;16.31;62.72
73101;BME280;61288;53.446;-2.266;2022-10-26T11:53:08;100330.28;;;16.16;63.23
73101;BME280;61288;53.446;-2.266;2022-10-26T11:55:38;100335.19;;;16.08;63.46
73101;BME280;61288;53.446;-2.266;2022-10-26T11:58:04;100341.25;;;15.96;62.99
73101;BME280;61288;53.446;-2.266;2022-10-26T12:00:31;100360.06;;;15.88;63.57
73101;BME280;61288;53.446;-2.266;2022-10-26T12:03:03;100373.22;;;15.73;64.30
73101;BME280;61288;53.446;-2.266;2022-10-26T12:05:43;100393.50;;;15.29;67.69
73101;BME280;61288;53.446;-2.266;2022-10-26T12:08:35;100402.69;;;14.95;71.93
73101;BME280;61288;53.446;-2.266;2022-10-26T12:13:53;100424.44;;;13.94;79.95
73101;BME280;61288;53.446;-2.266;2022-10-26T12:19:19;100422.84;;;13.30;87.02
73101;BME280;61288;53.446;-2.266;2022-10-26T12:21:49;100442.06;;;13.11;87.30
73101;BME280;61288;53.446;-2.266;2022-10-26T12:27:01;100425.19;;;12.70;89.47
73101;BME280;61288;53.446;-2.266;2022-10-26T12:29:39;100432.34;;;12.67;91.92
73101;BME280;61288;53.446;-2.266;2022-10-26T12:35:00;100399.53;;;12.96;91.76
73101;BME280;61288;53.446;-2.266;2022-10-26T12:37:34;100407.28;;;13.28;92.36
73101;BME280;61288;53.446;-2.266;2022-10-26T12:40:39;100404.03;;;13.71;92.72
73101;BME280;61288;53.446;-2.266;2022-10-26T12:48:42;100417.19;;;14.57;87.82
73101;BME280;61288;53.446;-2.266;2022-10-26T13:00:00;100434.69;;;15.11;83.40
73101;BME280;61288;53.446;-2.266;2022-10-26T13:08:06;100428.53;;;14.85;82.79
73101;BME280;61288;53.446;-2.266;2022-10-26T13:10:33;100426.31;;;14.79;82.95
73101;BME280;61288;53.446;-2.266;2022-10-26T13:13:02;100431.88;;;14.72;84.76
73101;BME280;61288;53.446;-2.266;2022-10-26T13:15:50;100432.91;;;14.55;83.20
73101;BME280;61288;53.446;-2.266;2022-10-26T13:18:18;100452.00;;;14.41;82.69
73101;BME280;61288;53.446;-2.266;2022-10-26T13:23:27;100462.59;;;14.24;83.78
73101;BME280;61288;53.446;-2.266;2022-10-26T13:31:04;100458.13;;;14.11;86.06
73101;BME280;61288;53.446;-2.266;2022-10-26T13:33:41;100462.69;;;14.08;85.74
73101;BME280;61288;53.446;-2.266;2022-10-26T13:36:42;100460.91;;;14.08;87.62
73101;BME280;61288;53.446;-2.266;2022-10-26T13:39:16;100467.44;;;14.15;86.37
73101;BME280;61288;53.446;-2.266;2022-10-26T13:41:45;100470.25;;;14.27;87.16
73101;BME280;61288;53.446;-2.266;2022-10-26T13:44:36;100481.69;;;14.39;86.38
73101;BME280;61288;53.446;-2.266;2022-10-26T13:47:08;100466.25;;;14.65;85.60
73101;BME280;61288;53.446;-2.266;2022-10-26T13:50:14;100471.34;;;14.95;82.52
73101;BME280;61288;53.446;-2.266;2022-10-26T13:52:49;100473.47;;;15.03;80.62
73101;BME280;61288;53.446;-2.266;2022-10-26T13:55:25;100481.41;;;15.01;78.58
73101;BME280;61288;53.446;-2.266;2022-10-26T14:01:14;100482.88;;;15.06;79.98
73101;BME280;61288;53.446;-2.266;2022-10-26T14:03:41;100469.53;;;15.10;76.83
73101;BME280;61288;53.446;-2.266;2022-10-26T14:06:23;100479.25;;;15.08;77.61
73101;BME280;61288;53.446;-2.266;2022-10-26T14:08:54;100470.97;;;15.01;75.31
73101;BME280;61288;53.446;-2.266;2022-10-26T14:11:35;100471.06;;;15.00;74.82
73101;BME280;61288;53.446;-2.266;2022-10-26T14:14:03;100460.72;;;14.98;74.76
73101;BME280;61288;53.446;-2.266;2022-10-26T14:16:31;100470.53;;;14.95;74.92
73101;BME280;61288;53.446;-2.266;2022-10-26T14:18:58;100488.22;;;14.90;75.36
73101;BME280;61288;53.446;-2.266;2022-10-26T14:21:24;100506.03;;;14.83;74.36
73101;BME280;61288;53.446;-2.266;2022-10-26T14:23:55;100511.63;;;14.77;78.88
73101;BME280;61288;53.446;-2.266;2022-10-26T14:26:27;100512.81;;;14.85;83.23
73101;BME280;61288;53.446;-2.266;2022-10-26T14:28:58;100508.25;;;14.89;82.83
73101;BME280;61288;53.446;-2.266;2022-10-26T14:31:29;100509.66;;;14.95;79.79
73101;BME280;61288;53.446;-2.266;2022-10-26T14:33:57;100508.16;;;15.05;80.26
73101;BME280;61288;53.446;-2.266;2022-10-26T14:39:33;100514.56;;;15.14;78.61
73101;BME280;61288;53.446;-2.266;2022-10-26T14:42:09;100520.47;;;15.30;79.01
73101;BME280;61288;53.446;-2.266;2022-10-26T14:44:38;100517.63;;;15.48;78.77
73101;BME280;61288;53.446;-2.266;2022-10-26T14:47:03;100511.09;;;15.55;75.78
73101;BME280;61288;53.446;-2.266;2022-10-26T14:49:31;100515.81;;;15.63;74.84
73101;BME280;61288;53.446;-2.266;2022-10-26T14:51:58;100520.31;;;15.61;73.33
73101;BME280;61288;53.446;-2.266;2022-10-26T14:54:26;100524.47;;;15.64;71.88
73101;BME280;61288;53.446;-2.266;2022-10-26T14:56:53;100531.09;;;15.69;70.49
73101;BME280;61288;53.446;-2.266;2022-10-26T14:59:31;100535.16;;;15.73;70.83
73101;BME280;61288;53.446;-2.266;2022-10-26T15:02:18;100543.81;;;15.74;69.88
73101;BME280;61288;53.446;-2.266;2022-10-26T15:04:58;100534.09;;;15.63;70.31
73101;BME280;61288;53.446;-2.266;2022-10-26T15:07:37;100547.63;;;15.55;69.89